Time;durP1;ratioP1;P1;durP2;ratioP2;P2;SDS_P1;SDS_P2;PMS_P1;PMS_P2;Temp;Humidity;BMP_temperature;BMP_pressure;BME280_temperature;BME280_humidity;BME280_pressure;Samples;Min_cycle;Max_cycle;Signal;HPM_P1;HPM_P2
2022/09/17 00:01:23;;;;;;;2.00;1.00;;;20.20;70.90;;;;;;5031094;28;20490;-87
2022/09/17 00:03:52;;;;;;;3.45;1.25;;;20.30;68.50;;;;;;5030725;28;20897;-87
2022/09/17 00:06:20;;;;;;;2.50;1.00;;;20.30;67.40;;;;;;5030856;28;20394;-87
2022/09/17 00:08:48;;;;;;;3.35;0.95;;;20.30;67.70;;;;;;5030781;28;20373;-85
2022/09/17 00:11:20;;;;;;;2.73;0.93;;;20.30;64.70;;;;;;5031125;28;20515;-86
2022/09/17 00:13:48;;;;;;;1.90;1.00;;;20.40;65.10;;;;;;5031872;28;20370;-85
2022/09/17 00:16:33;;;;;;;3.92;1.13;;;20.60;64.30;;;;;;5030465;28;20389;-85
2022/09/17 00:19:01;;;;;;;3.60;1.20;;;20.50;64.00;;;;;;5030856;28;20766;-85
2022/09/17 00:21:29;;;;;;;3.00;0.80;;;20.40;64.20;;;;;;5030497;28;20413;-85
2022/09/17 00:23:59;;;;;;;3.20;1.00;;;20.60;62.40;;;;;;5030584;28;20820;-85
2022/09/17 00:26:28;;;;;;;2.75;0.82;;;20.80;60.90;;;;;;5030735;28;20393;-86
2022/09/17 00:28:56;;;;;;;1.77;0.90;;;21.10;60.40;;;;;;5030429;28;20377;-85
2022/09/17 00:31:25;;;;;;;4.28;0.90;;;21.30;59.50;;;;;;5012671;28;20948;-86
2022/09/17 00:33:52;;;;;;;2.07;0.90;;;21.40;61.30;;;;;;5012459;28;20451;-86
2022/09/17 00:36:20;;;;;;;2.60;0.90;;;21.30;59.10;;;;;;5030402;28;20384;-86
2022/09/17 00:38:56;;;;;;;2.22;0.88;;;21.40;58.30;;;;;;5030473;28;20373;-87
2022/09/17 00:41:26;;;;;;;3.78;0.80;;;21.20;59.10;;;;;;5030494;28;20436;-85
2022/09/17 00:43:56;;;;;;;1.85;0.88;;;21.00;58.60;;;;;;5030283;28;20409;-85
2022/09/17 00:46:41;;;;;;;1.85;0.82;;;20.80;58.40;;;;;;5033244;28;20369;-86
2022/09/17 00:49:25;;;;;;;3.92;1.10;;;20.90;58.80;;;;;;5034377;28;20911;-85
2022/09/17 00:52:05;;;;;;;3.53;0.73;;;20.90;60.00;;;;;;5034229;28;20468;-85
2022/09/17 00:54:34;;;;;;;3.97;0.90;;;21.00;59.40;;;;;;5034424;28;21019;-86
2022/09/17 00:57:02;;;;;;;3.92;0.90;;;20.80;59.30;;;;;;5034169;28;20389;-86
2022/09/17 00:59:29;;;;;;;3.40;0.90;;;21.10;60.20;;;;;;5034672;28;20381;-85
2022/09/17 01:01:57;;;;;;;1.98;0.90;;;21.40;58.90;;;;;;5034549;28;20889;-87
2022/09/17 01:04:27;;;;;;;2.00;0.80;;;21.50;59.00;;;;;;5033878;28;20413;-86
2022/09/17 01:07:23;;;;;;;1.15;0.60;;;21.80;57.40;;;;;;5047163;28;20778;-85
2022/09/17 01:10:13;;;;;;;1.42;0.70;;;22.00;57.70;;;;;;5023816;28;20369;-86
2022/09/17 01:13:09;;;;;;;3.28;0.80;;;22.30;56.50;;;;;;4992193;28;20437;-85
2022/09/17 01:16:01;;;;;;;2.55;0.77;;;20.90;54.10;;;;;;4992510;28;20557;-86
2022/09/17 01:18:57;;;;;;;2.83;0.70;;;22.00;55.80;;;;;;4984810;28;20458;-87
2022/09/17 01:21:37;;;;;;;1.92;0.55;;;21.60;55.40;;;;;;4992185;28;20507;-86
2022/09/17 01:24:21;;;;;;;1.85;0.65;;;21.40;56.30;;;;;;4992200;28;20380;-86
2022/09/17 01:26:56;;;;;;;2.25;0.60;;;21.10;56.00;;;;;;4992453;28;20434;-86
2022/09/17 01:30:05;;;;;;;2.03;0.50;;;20.90;56.40;;;;;;5005915;28;20790;-85
2022/09/17 01:32:46;;;;;;;1.00;0.60;;;20.80;58.90;;;;;;4992229;28;20384;-86
2022/09/17 01:35:35;;;;;;;1.33;0.70;;;20.60;57.50;;;;;;4995244;28;20383;-85
2022/09/17 01:38:30;;;;;;;0.83;0.60;;;20.30;59.10;;;;;;4992367;28;20393;-85
2022/09/17 01:41:20;;;;;;;1.60;0.50;;;20.20;57.10;;;;;;4993167;28;20451;-85
2022/09/17 01:44:23;;;;;;;1.90;0.60;;;20.20;57.50;;;;;;4992686;28;20416;-84
2022/09/17 01:46:56;;;;;;;1.80;0.50;;;20.30;57.90;;;;;;4933886;29;20782;-85
2022/09/17 01:49:25;;;;;;;2.20;0.50;;;20.30;57.50;;;;;;4934017;29;20469;-85
2022/09/17 01:51:53;;;;;;;1.90;0.60;;;20.20;58.20;;;;;;4933722;29;20402;-85
2022/09/17 01:54:48;;;;;;;1.05;0.50;;;20.70;60.70;;;;;;4933627;29;20390;-86
2022/09/17 01:57:32;;;;;;;1.30;0.60;;;21.90;59.40;;;;;;4932843;29;20401;-86
2022/09/17 02:00:09;;;;;;;1.00;0.60;;;22.60;57.20;;;;;;4928821;29;20825;-86
2022/09/17 02:02:39;;;;;;;1.60;0.40;;;22.00;57.30;;;;;;4934158;29;21370;-87
2022/09/17 02:05:11;;;;;;;0.90;0.63;;;21.70;57.50;;;;;;4933339;29;20414;-86
2022/09/17 02:07:47;;;;;;;0.93;0.50;;;22.10;58.80;;;;;;4947387;29;20420;-86
2022/09/17 02:10:37;;;;;;;0.43;0.43;;;22.90;57.90;;;;;;4933462;29;20390;-86
2022/09/17 02:13:16;;;;;;;1.23;0.57;;;23.90;56.20;;;;;;4933701;29;20386;-88
2022/09/17 02:15:50;;;;;;;1.85;0.65;;;24.50;54.00;;;;;;4933324;29;20394;-86
2022/09/17 02:18:40;;;;;;;1.35;0.60;;;24.70;53.20;;;;;;4933846;29;20393;-86
2022/09/17 02:21:14;;;;;;;1.35;0.60;;;25.10;51.70;;;;;;4953789;29;20418;-86
2022/09/17 02:24:06;;;;;;;1.17;0.63;;;24.80;52.00;;;;;;4966756;28;20390;-86
2022/09/17 02:26:35;;;;;;;1.08;0.57;;;25.40;52.20;;;;;;4970668;28;20384;-86
2022/09/17 02:29:11;;;;;;;1.08;0.63;;;25.20;50.90;;;;;;4969116;28;20410;-85
2022/09/17 02:31:40;;;;;;;1.30;0.60;;;24.60;51.40;;;;;;4974058;28;21203;-84
2022/09/17 02:34:08;;;;;;;1.13;0.38;;;23.40;52.20;;;;;;4973304;28;20798;-86
2022/09/17 02:36:36;;;;;;;0.70;0.40;;;22.40;54.50;;;;;;4972385;28;20382;-85
2022/09/17 02:39:04;;;;;;;2.10;0.45;;;21.80;56.80;;;;;;4972422;28;20390;-86
2022/09/17 02:41:46;;;;;;;0.98;0.57;;;21.30;57.30;;;;;;4971768;28;20411;-85
2022/09/17 02:44:22;;;;;;;1.17;0.38;;;20.70;59.40;;;;;;4971781;28;20418;-87
2022/09/17 02:46:58;;;;;;;4.40;0.98;;;20.20;62.90;;;;;;4955871;28;20429;-87
2022/09/17 02:50:04;;;;;;;3.78;0.80;;;18.30;73.20;;;;;;4984441;28;20385;-87
2022/09/17 02:53:07;;;;;;;3.38;0.80;;;18.20;98.40;;;;;;4989718;28;20450;-86
2022/09/17 02:55:52;;;;;;;2.07;0.70;;;19.30;99.90;;;;;;4980798;28;20393;-85
2022/09/17 02:58:24;;;;;;;1.00;0.60;;;21.10;97.70;;;;;;4984033;28;20396;-84
2022/09/17 03:00:53;;;;;;;1.33;0.60;;;21.50;91.10;;;;;;4990919;28;20412;-84
2022/09/17 03:03:35;;;;;;;1.25;0.60;;;21.50;88.50;;;;;;4992613;28;20471;-85
2022/09/17 03:06:03;;;;;;;1.20;0.52;;;20.70;91.00;;;;;;4992638;28;20377;-85
2022/09/17 03:08:38;;;;;;;2.80;0.60;;;20.50;91.50;;;;;;4991371;28;20742;-84
2022/09/17 03:11:08;;;;;;;1.38;0.60;;;20.40;87.40;;;;;;4992513;28;20384;-86
2022/09/17 03:13:35;;;;;;;2.33;0.70;;;20.20;85.20;;;;;;4991335;28;20381;-84
2022/09/17 03:16:06;;;;;;;1.60;0.50;;;20.20;83.20;;;;;;4992228;28;20385;-85
2022/09/17 03:18:34;;;;;;;0.63;0.50;;;20.00;80.90;;;;;;4990959;28;20869;-85
2022/09/17 03:21:01;;;;;;;2.13;0.50;;;19.80;77.30;;;;;;5009353;28;20511;-85
2022/09/17 03:23:28;;;;;;;1.50;0.50;;;19.90;81.50;;;;;;5031546;28;20374;-84
2022/09/17 03:25:56;;;;;;;1.30;0.55;;;20.60;73.60;;;;;;5031379;28;20476;-85
2022/09/17 03:28:25;;;;;;;0.60;0.50;;;21.70;69.60;;;;;;5030943;28;20781;-86
2022/09/17 03:30:53;;;;;;;0.90;0.60;;;22.90;66.20;;;;;;5031585;28;20460;-84
2022/09/17 03:33:20;;;;;;;1.53;0.60;;;23.00;65.90;;;;;;5017767;28;20475;-87
2022/09/17 03:35:47;;;;;;;1.42;0.60;;;24.00;64.90;;;;;;5031571;28;20389;-83
2022/09/17 03:38:15;;;;;;;1.33;0.63;;;24.70;62.50;;;;;;5031162;28;20804;-84
2022/09/17 03:40:43;;;;;;;0.88;0.60;;;24.80;61.40;;;;;;5030976;28;20405;-85
2022/09/17 03:43:10;;;;;;;0.60;0.50;;;25.10;57.30;;;;;;5030934;28;20984;-84
2022/09/17 03:45:37;;;;;;;0.85;0.50;;;25.20;55.70;;;;;;5031217;28;20711;-84
2022/09/17 03:48:04;;;;;;;0.68;0.50;;;25.30;52.50;;;;;;5031067;28;20460;-87
2022/09/17 03:50:32;;;;;;;2.15;0.50;;;24.50;51.30;;;;;;5031385;28;20428;-84
2022/09/17 03:52:59;;;;;;;1.02;0.50;;;23.40;51.90;;;;;;5031223;28;20390;-86
2022/09/17 03:55:26;;;;;;;3.67;0.60;;;23.90;52.70;;;;;;5031553;28;20493;-84
2022/09/17 03:57:54;;;;;;;0.93;0.63;;;23.50;52.40;;;;;;5013248;28;20381;-85
2022/09/17 04:00:22;;;;;;;1.13;0.50;;;24.10;51.80;;;;;;5031187;28;20409;-84
2022/09/17 04:02:49;;;;;;;0.65;0.50;;;24.00;51.80;;;;;;5013133;28;20408;-87
2022/09/17 04:05:16;;;;;;;1.02;0.60;;;23.80;52.50;;;;;;5031268;28;20386;-87
2022/09/17 04:07:43;;;;;;;1.58;0.55;;;23.30;52.80;;;;;;5030907;28;20393;-84
2022/09/17 04:10:10;;;;;;;1.60;0.50;;;22.20;55.50;;;;;;5031161;28;20373;-85
2022/09/17 04:12:38;;;;;;;1.02;0.50;;;21.50;57.00;;;;;;5031075;28;20439;-85
2022/09/17 04:15:06;;;;;;;0.98;0.43;;;21.10;57.30;;;;;;5013448;28;20621;-86
2022/09/17 04:17:34;;;;;;;1.05;0.82;;;20.80;58.50;;;;;;5030605;28;20388;-85
2022/09/17 04:20:01;;;;;;;0.90;0.50;;;20.40;59.10;;;;;;5029956;28;20385;-86
2022/09/17 04:22:28;;;;;;;2.50;0.80;;;20.10;62.30;;;;;;5030575;28;20386;-85
2022/09/17 04:24:56;;;;;;;0.65;0.50;;;19.50;65.80;;;;;;5030386;28;20461;-88
2022/09/17 04:27:23;;;;;;;1.15;0.60;;;19.60;65.50;;;;;;5031009;28;20520;-84
2022/09/17 04:29:50;;;;;;;1.40;0.55;;;20.70;63.40;;;;;;5030292;28;20400;-85
2022/09/17 04:32:17;;;;;;;1.58;0.50;;;21.00;61.70;;;;;;5030552;28;20389;-85
2022/09/17 04:34:44;;;;;;;1.98;0.82;;;20.90;59.60;;;;;;5029988;28;20373;-84
2022/09/17 04:37:11;;;;;;;1.50;0.70;;;21.50;59.10;;;;;;5030357;28;20382;-84
2022/09/17 04:39:39;;;;;;;1.27;0.68;;;21.70;58.60;;;;;;5030358;28;20945;-83
2022/09/17 04:42:06;;;;;;;1.05;0.50;;;22.60;56.30;;;;;;5030515;28;20405;-84
2022/09/17 04:44:33;;;;;;;0.90;0.50;;;23.30;53.60;;;;;;5030136;28;20377;-84
2022/09/17 04:47:00;;;;;;;0.73;0.50;;;23.40;53.70;;;;;;5030343;28;20583;-85
2022/09/17 04:49:30;;;;;;;2.00;0.60;;;24.10;52.20;;;;;;5030172;28;20427;-85
2022/09/17 04:51:57;;;;;;;0.55;0.50;;;24.10;52.10;;;;;;5030399;28;20725;-85
2022/09/17 04:54:25;;;;;;;0.80;0.60;;;23.60;50.60;;;;;;5030149;28;20539;-84
2022/09/17 04:56:52;;;;;;;1.00;0.50;;;22.70;53.10;;;;;;5030045;28;20378;-84
2022/09/17 04:59:19;;;;;;;1.60;0.50;;;21.90;53.50;;;;;;5016549;28;20388;-84
2022/09/17 05:01:46;;;;;;;1.40;0.50;;;22.30;55.30;;;;;;5030100;28;20409;-83
2022/09/17 05:04:13;;;;;;;2.00;0.60;;;22.70;53.90;;;;;;5029902;28;20384;-84
2022/09/17 05:06:41;;;;;;;0.93;0.50;;;22.00;54.20;;;;;;5030148;28;20372;-84
2022/09/17 05:09:08;;;;;;;1.08;0.50;;;22.20;55.40;;;;;;5027351;28;20489;-83
2022/09/17 05:11:35;;;;;;;0.65;0.50;;;22.90;53.10;;;;;;5030245;28;20377;-86
2022/09/17 05:14:02;;;;;;;0.85;0.50;;;23.10;53.30;;;;;;5029911;28;20456;-85
2022/09/17 05:16:30;;;;;;;0.63;0.40;;;23.40;52.80;;;;;;5030124;28;20378;-85
2022/09/17 05:18:57;;;;;;;1.05;0.50;;;23.40;52.10;;;;;;5029850;28;20382;-85
2022/09/17 05:21:24;;;;;;;1.00;0.63;;;22.70;53.20;;;;;;5029705;28;20417;-85
2022/09/17 05:23:51;;;;;;;0.82;0.40;;;21.50;55.00;;;;;;5029791;28;20385;-84
2022/09/17 05:26:18;;;;;;;1.30;0.70;;;21.00;56.60;;;;;;5030043;28;20492;-82
2022/09/17 05:28:45;;;;;;;2.10;0.70;;;20.70;56.60;;;;;;5012459;28;20377;-84
2022/09/17 05:31:13;;;;;;;2.20;0.60;;;20.90;57.90;;;;;;5032818;28;20379;-83
2022/09/17 05:33:40;;;;;;;1.57;0.60;;;21.90;56.80;;;;;;5045141;28;20441;-86
2022/09/17 05:36:07;;;;;;;1.33;0.60;;;22.60;54.80;;;;;;5035163;28;20381;-84
2022/09/17 05:38:34;;;;;;;0.95;0.52;;;22.40;54.80;;;;;;5037448;28;20384;-85
2022/09/17 05:41:05;;;;;;;2.28;0.70;;;22.40;55.30;;;;;;5038854;28;20413;-85
2022/09/17 05:43:33;;;;;;;0.88;0.50;;;22.90;53.90;;;;;;5037061;28;20443;-84
2022/09/17 05:46:04;;;;;;;2.33;0.65;;;22.50;51.70;;;;;;5035955;28;20411;-84
2022/09/17 05:48:32;;;;;;;1.27;0.50;;;22.70;51.70;;;;;;5035157;28;20397;-84
2022/09/17 05:50:59;;;;;;;1.95;0.68;;;22.70;50.80;;;;;;5034253;28;20730;-84
2022/09/17 05:53:26;;;;;;;0.77;0.45;;;22.80;52.50;;;;;;5033564;28;20409;-83
2022/09/17 05:55:57;;;;;;;1.70;0.57;;;22.60;52.70;;;;;;5033621;28;20743;-83
2022/09/17 05:58:26;;;;;;;0.95;0.60;;;22.60;52.20;;;;;;5033797;28;20373;-83
2022/09/17 06:00:53;;;;;;;1.88;0.68;;;22.50;51.60;;;;;;5033306;28;20764;-83
2022/09/17 06:03:21;;;;;;;1.77;0.60;;;22.60;51.00;;;;;;5033562;28;20374;-82
2022/09/17 06:05:57;;;;;;;1.33;0.55;;;22.70;51.10;;;;;;5032784;28;20888;-84
2022/09/17 06:08:25;;;;;;;0.65;0.50;;;22.90;51.00;;;;;;5033202;28;20426;-83
2022/09/17 06:10:53;;;;;;;1.55;0.52;;;23.20;50.90;;;;;;5033143;28;20722;-85
2022/09/17 06:13:20;;;;;;;1.03;0.53;;;23.10;50.30;;;;;;5033263;28;20373;-85
2022/09/17 06:15:52;;;;;;;0.80;0.43;;;23.10;49.90;;;;;;5033246;28;20378;-86
2022/09/17 06:18:19;;;;;;;0.77;0.60;;;22.90;49.80;;;;;;5041630;28;20782;-85
2022/09/17 06:20:58;;;;;;;1.10;0.57;;;22.80;51.00;;;;;;5037737;28;20432;-84
2022/09/17 06:23:26;;;;;;;2.50;0.70;;;23.10;50.00;;;;;;5032612;28;20780;-83
2022/09/17 06:26:00;;;;;;;0.70;0.50;;;22.80;50.70;;;;;;5032925;28;20519;-85
2022/09/17 06:28:28;;;;;;;1.37;0.53;;;22.40;52.20;;;;;;5033066;28;20392;-84
2022/09/17 06:31:05;;;;;;;0.53;0.40;;;21.40;54.50;;;;;;5033186;28;20370;-84
2022/09/17 06:33:35;;;;;;;2.50;0.50;;;21.00;55.10;;;;;;5036107;28;20390;-84
2022/09/17 06:36:06;;;;;;;1.83;0.50;;;20.60;55.40;;;;;;5044390;28;20445;-84
2022/09/17 06:38:35;;;;;;;1.20;0.60;;;20.40;55.80;;;;;;5047636;28;20802;-85
2022/09/17 06:41:03;;;;;;;1.37;0.60;;;20.60;55.60;;;;;;5033030;28;20419;-84
2022/09/17 06:43:30;;;;;;;2.22;0.70;;;20.70;54.70;;;;;;5032090;28;20370;-83
2022/09/17 06:45:58;;;;;;;0.75;0.60;;;20.20;55.30;;;;;;5032357;28;20463;-85
2022/09/17 06:48:27;;;;;;;0.73;0.50;;;19.80;56.50;;;;;;5032162;28;20443;-84
2022/09/17 06:50:55;;;;;;;1.03;0.53;;;19.20;58.20;;;;;;5032161;28;20384;-84
2022/09/17 06:53:24;;;;;;;1.20;0.60;;;18.70;59.70;;;;;;5032083;28;20380;-83
2022/09/17 06:55:51;;;;;;;1.88;0.60;;;18.50;60.10;;;;;;5032178;28;20388;-84
2022/09/17 06:58:18;;;;;;;0.97;0.60;;;18.30;61.50;;;;;;5031946;28;20465;-84
2022/09/17 07:00:46;;;;;;;1.48;0.70;;;18.40;61.40;;;;;;5031778;28;20393;-83
2022/09/17 07:03:13;;;;;;;3.17;0.70;;;18.90;59.30;;;;;;5032023;28;20778;-84
2022/09/17 07:05:44;;;;;;;1.88;0.68;;;19.20;57.90;;;;;;5031651;28;20380;-84
2022/09/17 07:08:11;;;;;;;1.77;0.60;;;19.50;57.60;;;;;;5032116;28;20866;-84
2022/09/17 07:10:38;;;;;;;1.40;0.68;;;19.30;57.10;;;;;;5031874;28;20378;-84
2022/09/17 07:13:05;;;;;;;2.53;0.70;;;18.80;58.40;;;;;;5031906;28;20804;-84
2022/09/17 07:15:32;;;;;;;2.10;0.80;;;18.40;59.50;;;;;;5031658;28;20397;-85
2022/09/17 07:18:01;;;;;;;1.30;0.80;;;18.00;60.40;;;;;;5037363;28;20390;-84
2022/09/17 07:20:28;;;;;;;1.15;0.70;;;17.90;61.70;;;;;;5039422;28;20452;-84
2022/09/17 07:22:57;;;;;;;1.70;0.70;;;18.20;61.50;;;;;;5031562;28;20373;-84
2022/09/17 07:25:27;;;;;;;2.40;1.00;;;18.30;60.90;;;;;;5031657;28;20932;-84
2022/09/17 07:27:55;;;;;;;2.28;0.98;;;18.30;60.90;;;;;;5031594;28;20377;-85
2022/09/17 07:30:23;;;;;;;2.25;1.25;;;18.20;62.10;;;;;;5031307;28;20431;-83
2022/09/17 07:32:50;;;;;;;2.20;0.90;;;17.30;62.60;;;;;;5031154;28;20392;-83
2022/09/17 07:35:17;;;;;;;3.70;2.90;;;17.80;63.80;;;;;;5031331;28;20373;-84
2022/09/17 07:37:44;;;;;;;4.43;3.65;;;17.50;64.40;;;;;;5031248;28;20396;-84
2022/09/17 07:40:11;;;;;;;5.60;3.70;;;17.30;65.40;;;;;;5031088;28;20405;-84
2022/09/17 07:42:38;;;;;;;1.67;1.00;;;17.00;66.50;;;;;;5031418;28;20416;-84
2022/09/17 07:45:06;;;;;;;3.17;2.78;;;16.90;67.10;;;;;;5031490;28;20373;-84
2022/09/17 07:47:39;;;;;;;4.05;1.63;;;16.80;67.00;;;;;;5031776;28;20381;-83
2022/09/17 07:50:07;;;;;;;2.63;1.00;;;16.80;66.70;;;;;;5031476;28;20881;-84
2022/09/17 07:52:34;;;;;;;2.88;1.52;;;16.70;65.10;;;;;;5031749;28;20749;-84
2022/09/17 07:55:01;;;;;;;2.35;1.48;;;16.70;64.40;;;;;;5039329;28;20907;-80
2022/09/17 07:57:28;;;;;;;2.47;1.00;;;16.70;64.70;;;;;;5039442;28;20393;-82
2022/09/17 07:59:56;;;;;;;6.07;2.55;;;16.60;65.70;;;;;;5035883;28;20382;-81
2022/09/17 08:02:23;;;;;;;2.90;1.52;;;16.40;66.40;;;;;;5036058;28;20392;-80
2022/09/17 08:04:50;;;;;;;3.28;1.67;;;16.30;67.80;;;;;;5038766;28;20431;-80
2022/09/17 08:07:17;;;;;;;3.58;1.80;;;16.20;67.60;;;;;;5041604;28;20412;-81
2022/09/17 08:09:44;;;;;;;2.50;1.10;;;16.20;67.90;;;;;;5034992;28;20377;-82
2022/09/17 08:12:12;;;;;;;4.57;1.88;;;16.10;67.50;;;;;;5034520;28;20377;-81
2022/09/17 08:14:39;;;;;;;4.03;1.48;;;16.00;68.60;;;;;;5032524;28;20381;-82
2022/09/17 08:17:09;;;;;;;3.97;1.60;;;16.00;69.70;;;;;;5031254;28;20476;-82
2022/09/17 08:19:36;;;;;;;2.47;1.33;;;16.00;69.90;;;;;;5030723;28;20389;-83
2022/09/17 08:22:03;;;;;;;3.42;1.35;;;16.10;70.00;;;;;;5030093;28;20919;-81
2022/09/17 08:24:31;;;;;;;2.03;1.10;;;15.90;70.40;;;;;;5030504;28;20381;-81
2022/09/17 08:26:58;;;;;;;2.93;1.30;;;15.90;70.40;;;;;;5012913;28;20840;-82
2022/09/17 08:29:25;;;;;;;3.15;1.45;;;15.80;71.40;;;;;;5044751;28;20371;-82
2022/09/17 08:31:52;;;;;;;2.35;1.20;;;15.70;71.60;;;;;;5031137;28;20386;-83
2022/09/17 08:34:19;;;;;;;2.28;1.20;;;15.70;71.90;;;;;;5030838;28;20382;-83
2022/09/17 08:36:46;;;;;;;3.60;1.10;;;15.70;71.90;;;;;;5030611;28;20397;-83
2022/09/17 08:39:13;;;;;;;4.03;1.27;;;15.70;72.60;;;;;;5030697;28;20370;-82
2022/09/17 08:42:17;;;;;;;3.40;1.30;;;15.60;72.30;;;;;;5030629;28;20760;-82
2022/09/17 08:44:46;;;;;;;3.40;1.42;;;15.70;72.60;;;;;;4990477;28;20403;-82
2022/09/17 08:47:19;;;;;;;2.67;1.20;;;15.60;72.80;;;;;;4992139;28;20385;-84
2022/09/17 08:49:52;;;;;;;2.92;1.30;;;15.60;73.10;;;;;;4993139;28;20377;-82
2022/09/17 08:52:51;;;;;;;3.30;1.38;;;15.40;73.30;;;;;;4995970;28;20388;-82
2022/09/17 08:55:32;;;;;;;4.20;1.40;;;15.30;74.50;;;;;;4994723;28;20381;-81
2022/09/17 08:58:11;;;;;;;3.00;1.30;;;15.30;74.90;;;;;;4996600;28;20813;-82
2022/09/17 09:00:57;;;;;;;3.20;1.42;;;15.20;75.10;;;;;;4992578;28;20499;-81
2022/09/17 09:03:51;;;;;;;3.10;1.40;;;15.20;76.30;;;;;;5003013;28;20383;-82
2022/09/17 09:06:26;;;;;;;3.38;1.60;;;15.10;76.90;;;;;;4992234;28;20833;-82
2022/09/17 09:09:20;;;;;;;4.40;1.50;;;15.10;77.20;;;;;;4993595;28;20388;-82
2022/09/17 09:11:49;;;;;;;4.07;1.90;;;15.00;79.30;;;;;;4987945;28;20479;-81
2022/09/17 09:14:22;;;;;;;3.03;1.70;;;14.90;78.80;;;;;;4994557;28;20385;-80
2022/09/17 09:16:51;;;;;;;4.13;1.92;;;14.90;78.70;;;;;;4994701;28;20381;-81
2022/09/17 09:19:29;;;;;;;3.88;1.83;;;14.90;79.60;;;;;;5025474;28;20377;-81
2022/09/17 09:22:03;;;;;;;3.50;1.90;;;14.80;80.50;;;;;;5035519;28;20405;-82
2022/09/17 09:24:53;;;;;;;4.00;1.75;;;14.80;80.80;;;;;;5036563;28;20473;-82
2022/09/17 09:27:26;;;;;;;3.90;1.40;;;14.80;80.20;;;;;;5036617;28;20385;-82
2022/09/17 09:30:12;;;;;;;3.60;1.80;;;14.90;78.80;;;;;;5023856;28;20448;-80
2022/09/17 09:33:13;;;;;;;3.67;1.63;;;15.00;79.30;;;;;;5052553;28;20921;-80
2022/09/17 09:35:44;;;;;;;3.42;1.60;;;15.00;79.50;;;;;;4975399;28;20469;-83
2022/09/17 09:38:27;;;;;;;3.22;1.67;;;15.10;78.60;;;;;;4958627;28;20457;-81
2022/09/17 09:41:11;;;;;;;3.63;2.00;;;15.10;79.00;;;;;;4955819;28;20404;-81
2022/09/17 09:43:51;;;;;;;4.22;2.05;;;15.10;79.20;;;;;;4956251;28;20408;-81
2022/09/17 09:46:31;;;;;;;2.88;1.80;;;15.10;79.70;;;;;;4954401;28;20381;-81
2022/09/17 09:49:25;;;;;;;3.08;1.63;;;15.00;79.60;;;;;;4958291;28;20396;-83
2022/09/17 09:52:22;;;;;;;3.63;1.45;;;15.10;78.40;;;;;;4956303;28;20385;-82
2022/09/17 09:54:49;;;;;;;2.85;1.67;;;15.10;77.60;;;;;;4956068;28;20931;-82
2022/09/17 09:57:22;;;;;;;3.25;1.50;;;15.20;77.60;;;;;;4957172;28;20876;-82
2022/09/17 09:59:49;;;;;;;3.88;1.88;;;15.20;77.60;;;;;;4955070;28;20424;-82
2022/09/17 10:02:16;;;;;;;2.10;1.25;;;15.10;77.50;;;;;;4956437;28;20489;-83
2022/09/17 10:04:43;;;;;;;4.40;1.50;;;15.20;77.80;;;;;;4940158;29;20452;-79
2022/09/17 10:07:14;;;;;;;4.43;1.33;;;15.20;77.10;;;;;;4955921;28;20395;-83
2022/09/17 10:09:46;;;;;;;3.17;1.98;;;15.30;75.30;;;;;;4955594;28;20942;-81
2022/09/17 10:12:17;;;;;;;2.88;2.25;;;15.30;75.60;;;;;;4991546;28;20455;-83
2022/09/17 10:14:46;;;;;;;8.00;6.32;;;15.40;75.20;;;;;;5042492;28;20376;-81
2022/09/17 10:17:25;;;;;;;2.45;1.60;;;15.40;75.20;;;;;;5042215;28;20384;-83
2022/09/17 10:20:06;;;;;;;3.35;1.40;;;15.40;75.60;;;;;;5022554;28;20381;-83
2022/09/17 10:22:43;;;;;;;2.38;1.20;;;15.30;75.30;;;;;;5016447;28;20448;-83
2022/09/17 10:25:31;;;;;;;2.13;1.30;;;15.20;75.60;;;;;;5035996;28;20366;-83
2022/09/17 10:28:05;;;;;;;2.70;1.40;;;15.10;76.00;;;;;;5034630;28;20374;-83
2022/09/17 10:30:32;;;;;;;1.85;1.08;;;15.20;76.60;;;;;;5035802;28;20413;-82
2022/09/17 10:33:19;;;;;;;2.08;1.27;;;15.20;76.50;;;;;;5031659;28;20374;-83
2022/09/17 10:36:07;;;;;;;2.80;1.10;;;15.10;76.90;;;;;;5035391;28;20450;-83
2022/09/17 10:38:40;;;;;;;2.78;1.35;;;15.10;77.20;;;;;;5036743;28;20408;-81
2022/09/17 10:41:17;;;;;;;2.77;1.10;;;15.00;77.80;;;;;;5036153;28;20467;-82
2022/09/17 10:43:46;;;;;;;2.35;1.20;;;14.90;78.10;;;;;;5047311;28;20369;-82
2022/09/17 10:46:20;;;;;;;2.90;1.20;;;14.90;78.50;;;;;;5032741;28;20453;-83
2022/09/17 10:49:27;;;;;;;2.22;1.10;;;14.80;78.90;;;;;;5035631;28;20413;-83
2022/09/17 10:52:12;;;;;;;3.10;1.40;;;14.70;79.10;;;;;;5035219;28;20370;-82
2022/09/17 10:55:08;;;;;;;2.05;1.25;;;14.60;80.00;;;;;;5035068;28;20376;-82
2022/09/17 10:58:08;;;;;;;3.15;1.40;;;14.50;79.80;;;;;;4968932;28;20419;-82
2022/09/17 11:01:04;;;;;;;3.22;1.73;;;14.40;81.40;;;;;;4953808;28;20884;-82
2022/09/17 11:03:55;;;;;;;3.08;1.52;;;14.20;82.50;;;;;;4966665;28;20386;-83
2022/09/17 11:07:02;;;;;;;3.70;2.00;;;14.00;84.00;;;;;;4955366;28;21140;-81
2022/09/17 11:09:43;;;;;;;4.22;1.63;;;13.80;85.70;;;;;;4967453;28;20397;-82
2022/09/17 11:12:35;;;;;;;3.35;1.67;;;13.90;84.80;;;;;;4954154;29;20416;-83
2022/09/17 11:15:35;;;;;;;2.83;1.40;;;14.00;85.10;;;;;;4954089;28;20380;-82
2022/09/17 11:18:29;;;;;;;3.55;1.30;;;14.00;84.70;;;;;;4952888;28;20400;-81
2022/09/17 11:21:25;;;;;;;3.17;1.30;;;14.20;83.40;;;;;;4952807;28;20427;-82
2022/09/17 11:24:28;;;;;;;2.38;1.20;;;14.30;82.60;;;;;;4952753;28;20395;-83
2022/09/17 11:27:02;;;;;;;1.43;1.00;;;14.30;82.40;;;;;;4952698;28;20396;-82
2022/09/17 11:29:37;;;;;;;3.10;1.10;;;14.30;82.40;;;;;;4952220;28;20439;-82
2022/09/17 11:32:25;;;;;;;3.58;1.10;;;14.30;81.20;;;;;;4950990;28;20451;-83
2022/09/17 11:35:10;;;;;;;3.85;1.20;;;14.40;81.80;;;;;;5007354;28;20398;-82
2022/09/17 11:37:47;;;;;;;2.63;1.10;;;14.40;81.00;;;;;;5031376;28;20377;-82
2022/09/17 11:40:24;;;;;;;2.25;1.10;;;14.40;81.10;;;;;;5025272;28;20372;-83
2022/09/17 11:43:01;;;;;;;2.92;1.10;;;14.40;80.30;;;;;;5037123;28;20714;-83
2022/09/17 11:45:43;;;;;;;2.47;0.90;;;14.60;78.40;;;;;;5025048;28;20370;-81
2022/09/17 11:48:21;;;;;;;2.60;1.00;;;14.70;78.70;;;;;;5030920;28;20409;-83
2022/09/17 11:51:08;;;;;;;5.45;1.10;;;14.60;77.90;;;;;;5031248;28;20841;-82
2022/09/17 11:53:36;;;;;;;1.70;0.87;;;14.60;78.90;;;;;;5031106;28;20861;-81
2022/09/17 11:56:29;;;;;;;1.77;1.00;;;14.60;78.80;;;;;;5031010;28;20382;-82
2022/09/17 11:59:03;;;;;;;2.83;1.00;;;14.50;78.50;;;;;;5028059;28;20382;-81
2022/09/17 12:01:48;;;;;;;2.90;1.00;;;14.50;79.10;;;;;;5030952;28;20431;-81
2022/09/17 12:04:51;;;;;;;3.10;0.90;;;14.50;79.20;;;;;;5031428;28;20369;-82
2022/09/17 12:07:27;;;;;;;1.92;1.00;;;14.30;79.70;;;;;;5034811;28;20436;-82
2022/09/17 12:10:15;;;;;;;2.20;0.90;;;14.40;79.20;;;;;;5035858;28;20388;-83
2022/09/17 12:12:49;;;;;;;2.28;0.90;;;14.50;78.80;;;;;;5036297;28;20366;-83
2022/09/17 12:15:27;;;;;;;2.22;0.80;;;14.50;78.20;;;;;;5032907;28;20392;-82
2022/09/17 12:18:11;;;;;;;2.20;1.10;;;14.60;78.20;;;;;;5032295;28;20448;-82
2022/09/17 12:20:42;;;;;;;2.47;1.20;;;14.60;78.00;;;;;;5031690;28;20401;-82
2022/09/17 12:23:15;;;;;;;2.67;1.10;;;14.60;77.90;;;;;;5031219;28;20377;-83
2022/09/17 12:25:57;;;;;;;2.53;1.10;;;14.60;77.80;;;;;;5030920;28;20746;-81
2022/09/17 12:28:57;;;;;;;3.27;1.17;;;14.70;77.60;;;;;;5023261;28;20387;-82
2022/09/17 12:31:41;;;;;;;2.38;1.40;;;14.70;77.40;;;;;;4990083;28;20384;-82
2022/09/17 12:34:26;;;;;;;1.83;1.00;;;14.90;76.60;;;;;;4990303;28;20435;-82
2022/09/17 12:37:01;;;;;;;2.67;1.05;;;14.90;77.00;;;;;;4990243;28;20392;-81
2022/09/17 12:39:53;;;;;;;2.30;1.00;;;14.80;77.20;;;;;;4990090;28;20388;-82
2022/09/17 12:42:38;;;;;;;2.95;1.00;;;14.90;76.20;;;;;;4992622;28;20435;-82
2022/09/17 12:45:49;;;;;;;2.15;1.00;;;14.80;76.50;;;;;;4993565;28;20379;-82
2022/09/17 12:48:40;;;;;;;2.63;1.10;;;14.80;76.50;;;;;;4936039;29;20429;-82
2022/09/17 12:51:43;;;;;;;2.00;1.00;;;14.90;76.20;;;;;;4936419;29;20941;-83
2022/09/17 12:54:37;;;;;;;2.78;1.10;;;14.90;75.80;;;;;;4936490;29;20392;-82
2022/09/17 12:57:12;;;;;;;3.47;0.97;;;15.00;75.00;;;;;;4935597;29;20885;-82
2022/09/17 12:59:50;;;;;;;1.45;0.90;;;15.10;74.50;;;;;;4936140;29;20893;-81
2022/09/17 13:02:29;;;;;;;2.73;1.00;;;15.10;74.40;;;;;;4920278;29;20428;-82
2022/09/17 13:04:56;;;;;;;2.22;0.93;;;15.10;75.00;;;;;;4935023;29;20413;-82
2022/09/17 13:07:51;;;;;;;3.35;1.10;;;15.00;75.10;;;;;;4935167;29;20385;-82
2022/09/17 13:10:39;;;;;;;1.98;1.00;;;14.90;75.30;;;;;;4935582;29;20774;-82
2022/09/17 13:13:43;;;;;;;2.40;1.00;;;14.80;75.70;;;;;;4937009;28;20402;-82
2022/09/17 13:16:32;;;;;;;2.13;0.90;;;14.90;75.70;;;;;;4935010;29;20420;-81
2022/09/17 13:19:17;;;;;;;3.45;0.98;;;14.90;75.30;;;;;;4935296;29;20414;-82
2022/09/17 13:22:17;;;;;;;2.15;0.90;;;14.90;75.30;;;;;;4935193;29;20418;-83
2022/09/17 13:24:46;;;;;;;2.87;0.90;;;15.00;74.30;;;;;;4987375;28;20385;-82
2022/09/17 13:27:27;;;;;;;2.05;0.77;;;15.00;73.60;;;;;;5034685;28;20419;-81
2022/09/17 13:29:54;;;;;;;2.20;1.08;;;15.20;73.20;;;;;;5035006;28;20427;-82